sensor_id;sensor_type;location;lat;lon;timestamp;P1;durP1;ratioP1;P2;durP2;ratioP2
19341;SDS011;9807;48.258;12.690;2024-01-10T00:01:34;39.33;;;17.50;;
19341;SDS011;9807;48.258;12.690;2024-01-10T00:03:59;37.07;;;18.27;;
19341;SDS011;9807;48.258;12.690;2024-01-10T00:06:30;43.53;;;22.27;;
19341;SDS011;9807;48.258;12.690;2024-01-10T00:08:56;42.87;;;20.27;;
19341;SDS011;9807;48.258;12.690;2024-01-10T00:11:21;40.07;;;19.30;;
19341;SDS011;9807;48.258;12.690;2024-01-10T00:13:47;43.27;;;18.97;;
19341;SDS011;9807;48.258;12.690;2024-01-10T00:16:13;54.27;;;24.27;;
19341;SDS011;9807;48.258;12.690;2024-01-10T00:18:39;55.77;;;25.37;;
19341;SDS011;9807;48.258;12.690;2024-01-10T00:21:05;43.70;;;20.37;;
19341;SDS011;9807;48.258;12.690;2024-01-10T00:23:32;45.03;;;19.33;;
19341;SDS011;9807;48.258;12.690;2024-01-10T00:25:57;54.73;;;23.40;;
19341;SDS011;9807;48.258;12.690;2024-01-10T00:28:24;43.60;;;20.50;;
19341;SDS011;9807;48.258;12.690;2024-01-10T00:30:50;45.93;;;20.50;;
19341;SDS011;9807;48.258;12.690;2024-01-10T00:33:16;39.67;;;19.50;;
19341;SDS011;9807;48.258;12.690;2024-01-10T00:35:48;40.73;;;19.67;;
19341;SDS011;9807;48.258;12.690;2024-01-10T00:38:14;48.13;;;23.33;;
19341;SDS011;9807;48.258;12.690;2024-01-10T00:40:39;51.53;;;24.17;;
19341;SDS011;9807;48.258;12.690;2024-01-10T00:43:05;46.53;;;21.43;;
19341;SDS011;9807;48.258;12.690;2024-01-10T00:45:31;41.60;;;20.00;;
19341;SDS011;9807;48.258;12.690;2024-01-10T00:47:57;39.70;;;18.27;;
19341;SDS011;9807;48.258;12.690;2024-01-10T00:50:24;41.67;;;18.97;;
19341;SDS011;9807;48.258;12.690;2024-01-10T00:52:49;43.77;;;20.77;;
19341;SDS011;9807;48.258;12.690;2024-01-10T00:55:15;40.90;;;18.93;;
19341;SDS011;9807;48.258;12.690;2024-01-10T00:57:41;36.53;;;17.27;;
19341;SDS011;9807;48.258;12.690;2024-01-10T01:00:07;36.53;;;17.67;;
19341;SDS011;9807;48.258;12.690;2024-01-10T01:02:34;44.30;;;20.10;;
19341;SDS011;9807;48.258;12.690;2024-01-10T01:05:00;38.93;;;17.67;;
19341;SDS011;9807;48.258;12.690;2024-01-10T01:07:27;36.27;;;16.83;;
19341;SDS011;9807;48.258;12.690;2024-01-10T01:09:52;36.27;;;17.37;;
19341;SDS011;9807;48.258;12.690;2024-01-10T01:12:18;46.83;;;19.93;;
19341;SDS011;9807;48.258;12.690;2024-01-10T01:14:44;40.87;;;18.43;;
19341;SDS011;9807;48.258;12.690;2024-01-10T01:17:10;36.13;;;17.43;;
19341;SDS011;9807;48.258;12.690;2024-01-10T01:19:35;33.07;;;16.23;;
19341;SDS011;9807;48.258;12.690;2024-01-10T01:22:01;32.90;;;16.70;;
19341;SDS011;9807;48.258;12.690;2024-01-10T01:24:27;35.43;;;18.03;;
19341;SDS011;9807;48.258;12.690;2024-01-10T01:26:52;42.23;;;18.27;;
19341;SDS011;9807;48.258;12.690;2024-01-10T01:29:18;42.83;;;21.20;;
19341;SDS011;9807;48.258;12.690;2024-01-10T01:31:45;38.37;;;18.30;;
19341;SDS011;9807;48.258;12.690;2024-01-10T01:34:10;38.47;;;18.47;;
19341;SDS011;9807;48.258;12.690;2024-01-10T01:36:36;38.33;;;18.53;;
19341;SDS011;9807;48.258;12.690;2024-01-10T01:39:02;37.53;;;16.77;;
19341;SDS011;9807;48.258;12.690;2024-01-10T01:41:28;44.23;;;21.00;;
19341;SDS011;9807;48.258;12.690;2024-01-10T01:43:54;36.17;;;16.47;;
19341;SDS011;9807;48.258;12.690;2024-01-10T01:46:19;41.43;;;20.10;;
19341;SDS011;9807;48.258;12.690;2024-01-10T01:48:45;39.13;;;19.63;;
19341;SDS011;9807;48.258;12.690;2024-01-10T01:51:12;39.40;;;19.37;;
19341;SDS011;9807;48.258;12.690;2024-01-10T01:53:39;46.60;;;22.53;;
19341;SDS011;9807;48.258;12.690;2024-01-10T01:56:06;43.13;;;21.13;;
19341;SDS011;9807;48.258;12.690;2024-01-10T01:58:33;35.80;;;17.57;;
19341;SDS011;9807;48.258;12.690;2024-01-10T02:01:02;39.03;;;19.23;;
19341;SDS011;9807;48.258;12.690;2024-01-10T02:03:30;38.93;;;18.93;;
19341;SDS011;9807;48.258;12.690;2024-01-10T02:05:56;43.57;;;20.03;;
19341;SDS011;9807;48.258;12.690;2024-01-10T02:08:22;35.70;;;18.00;;
19341;SDS011;9807;48.258;12.690;2024-01-10T02:10:48;45.63;;;19.83;;
19341;SDS011;9807;48.258;12.690;2024-01-10T02:13:14;35.17;;;17.53;;
19341;SDS011;9807;48.258;12.690;2024-01-10T02:15:40;39.83;;;19.63;;
19341;SDS011;9807;48.258;12.690;2024-01-10T02:18:06;39.97;;;19.30;;
19341;SDS011;9807;48.258;12.690;2024-01-10T02:20:32;37.13;;;17.60;;
19341;SDS011;9807;48.258;12.690;2024-01-10T02:22:58;35.07;;;16.60;;
19341;SDS011;9807;48.258;12.690;2024-01-10T02:25:25;41.83;;;20.17;;
19341;SDS011;9807;48.258;12.690;2024-01-10T02:27:50;45.73;;;21.97;;
19341;SDS011;9807;48.258;12.690;2024-01-10T02:30:16;50.13;;;22.90;;
19341;SDS011;9807;48.258;12.690;2024-01-10T02:32:42;43.27;;;21.00;;
19341;SDS011;9807;48.258;12.690;2024-01-10T02:35:08;45.30;;;20.90;;
19341;SDS011;9807;48.258;12.690;2024-01-10T02:37:33;49.27;;;23.40;;
19341;SDS011;9807;48.258;12.690;2024-01-10T02:39:59;48.97;;;23.43;;
19341;SDS011;9807;48.258;12.690;2024-01-10T02:42:28;42.23;;;20.50;;
19341;SDS011;9807;48.258;12.690;2024-01-10T02:44:55;47.50;;;21.77;;
19341;SDS011;9807;48.258;12.690;2024-01-10T02:47:21;51.90;;;22.60;;
19341;SDS011;9807;48.258;12.690;2024-01-10T02:49:46;49.17;;;22.17;;
19341;SDS011;9807;48.258;12.690;2024-01-10T02:52:12;53.50;;;23.63;;
19341;SDS011;9807;48.258;12.690;2024-01-10T02:54:38;57.80;;;24.63;;
19341;SDS011;9807;48.258;12.690;2024-01-10T02:57:03;50.73;;;21.43;;
19341;SDS011;9807;48.258;12.690;2024-01-10T02:59:29;44.87;;;20.03;;
19341;SDS011;9807;48.258;12.690;2024-01-10T03:01:55;58.47;;;24.40;;
19341;SDS011;9807;48.258;12.690;2024-01-10T03:04:20;69.43;;;28.87;;
19341;SDS011;9807;48.258;12.690;2024-01-10T03:06:46;61.00;;;25.07;;
19341;SDS011;9807;48.258;12.690;2024-01-10T03:09:11;64.23;;;25.53;;
19341;SDS011;9807;48.258;12.690;2024-01-10T03:11:37;65.50;;;25.77;;
19341;SDS011;9807;48.258;12.690;2024-01-10T03:14:03;72.40;;;26.87;;
19341;SDS011;9807;48.258;12.690;2024-01-10T03:16:33;70.27;;;27.30;;
19341;SDS011;9807;48.258;12.690;2024-01-10T03:18:59;69.93;;;25.30;;
19341;SDS011;9807;48.258;12.690;2024-01-10T03:21:25;72.00;;;25.90;;
19341;SDS011;9807;48.258;12.690;2024-01-10T03:23:52;69.40;;;26.37;;
19341;SDS011;9807;48.258;12.690;2024-01-10T03:26:21;76.27;;;27.00;;
19341;SDS011;9807;48.258;12.690;2024-01-10T03:28:47;73.70;;;26.77;;
19341;SDS011;9807;48.258;12.690;2024-01-10T03:31:13;76.83;;;26.57;;
19341;SDS011;9807;48.258;12.690;2024-01-10T03:33:39;72.17;;;26.40;;
19341;SDS011;9807;48.258;12.690;2024-01-10T03:36:06;78.73;;;27.20;;
19341;SDS011;9807;48.258;12.690;2024-01-10T03:38:32;83.87;;;26.33;;
19341;SDS011;9807;48.258;12.690;2024-01-10T03:40:57;85.87;;;27.33;;
19341;SDS011;9807;48.258;12.690;2024-01-10T03:43:26;83.83;;;27.97;;
19341;SDS011;9807;48.258;12.690;2024-01-10T03:45:52;84.60;;;26.67;;
19341;SDS011;9807;48.258;12.690;2024-01-10T03:48:18;76.10;;;25.50;;
19341;SDS011;9807;48.258;12.690;2024-01-10T03:50:44;69.43;;;24.00;;
19341;SDS011;9807;48.258;12.690;2024-01-10T03:53:10;75.17;;;25.23;;
19341;SDS011;9807;48.258;12.690;2024-01-10T03:55:35;61.03;;;22.43;;
19341;SDS011;9807;48.258;12.690;2024-01-10T03:58:01;74.00;;;25.03;;
19341;SDS011;9807;48.258;12.690;2024-01-10T04:00:27;71.17;;;25.57;;
19341;SDS011;9807;48.258;12.690;2024-01-10T04:02:52;68.03;;;25.37;;
19341;SDS011;9807;48.258;12.690;2024-01-10T04:05:18;72.33;;;27.53;;
19341;SDS011;9807;48.258;12.690;2024-01-10T04:07:45;70.10;;;26.83;;
19341;SDS011;9807;48.258;12.690;2024-01-10T04:10:12;62.57;;;25.10;;
19341;SDS011;9807;48.258;12.690;2024-01-10T04:12:42;61.60;;;22.73;;
19341;SDS011;9807;48.258;12.690;2024-01-10T04:15:08;67.40;;;24.27;;
19341;SDS011;9807;48.258;12.690;2024-01-10T04:17:34;72.53;;;28.53;;
19341;SDS011;9807;48.258;12.690;2024-01-10T04:20:00;73.17;;;27.97;;
19341;SDS011;9807;48.258;12.690;2024-01-10T04:22:26;75.83;;;27.80;;
19341;SDS011;9807;48.258;12.690;2024-01-10T04:24:52;80.70;;;28.37;;
19341;SDS011;9807;48.258;12.690;2024-01-10T04:27:17;74.83;;;24.40;;
19341;SDS011;9807;48.258;12.690;2024-01-10T04:29:43;70.97;;;26.80;;
19341;SDS011;9807;48.258;12.690;2024-01-10T04:32:09;51.40;;;21.00;;
19341;SDS011;9807;48.258;12.690;2024-01-10T04:34:35;72.33;;;27.33;;
19341;SDS011;9807;48.258;12.690;2024-01-10T04:37:01;75.60;;;28.97;;
19341;SDS011;9807;48.258;12.690;2024-01-10T04:39:27;72.87;;;26.90;;
19341;SDS011;9807;48.258;12.690;2024-01-10T04:41:53;77.57;;;28.47;;
19341;SDS011;9807;48.258;12.690;2024-01-10T04:44:19;84.33;;;29.40;;
19341;SDS011;9807;48.258;12.690;2024-01-10T04:46:44;73.50;;;28.50;;
19341;SDS011;9807;48.258;12.690;2024-01-10T04:49:10;75.47;;;27.07;;
19341;SDS011;9807;48.258;12.690;2024-01-10T04:51:35;83.70;;;28.70;;
19341;SDS011;9807;48.258;12.690;2024-01-10T04:54:01;83.87;;;28.83;;
19341;SDS011;9807;48.258;12.690;2024-01-10T04:56:27;69.60;;;24.87;;
19341;SDS011;9807;48.258;12.690;2024-01-10T04:58:52;68.30;;;25.03;;
19341;SDS011;9807;48.258;12.690;2024-01-10T05:01:18;73.97;;;26.07;;
19341;SDS011;9807;48.258;12.690;2024-01-10T05:03:45;77.30;;;27.37;;
19341;SDS011;9807;48.258;12.690;2024-01-10T05:06:11;77.93;;;28.70;;
19341;SDS011;9807;48.258;12.690;2024-01-10T05:08:36;72.67;;;27.10;;
19341;SDS011;9807;48.258;12.690;2024-01-10T05:11:02;83.77;;;28.60;;
19341;SDS011;9807;48.258;12.690;2024-01-10T05:13:28;80.17;;;29.13;;
19341;SDS011;9807;48.258;12.690;2024-01-10T05:15:54;72.53;;;27.00;;
19341;SDS011;9807;48.258;12.690;2024-01-10T05:18:20;83.37;;;29.83;;
19341;SDS011;9807;48.258;12.690;2024-01-10T05:20:46;86.30;;;30.07;;
19341;SDS011;9807;48.258;12.690;2024-01-10T05:23:12;84.37;;;29.87;;
19341;SDS011;9807;48.258;12.690;2024-01-10T05:25:38;93.47;;;30.80;;
19341;SDS011;9807;48.258;12.690;2024-01-10T05:28:03;102.20;;;34.27;;
19341;SDS011;9807;48.258;12.690;2024-01-10T05:30:30;92.70;;;31.90;;
19341;SDS011;9807;48.258;12.690;2024-01-10T05:32:56;97.53;;;31.70;;
19341;SDS011;9807;48.258;12.690;2024-01-10T05:35:26;102.40;;;32.60;;
19341;SDS011;9807;48.258;12.690;2024-01-10T05:37:51;85.67;;;29.37;;
19341;SDS011;9807;48.258;12.690;2024-01-10T05:40:18;87.20;;;30.33;;
19341;SDS011;9807;48.258;12.690;2024-01-10T05:42:44;85.63;;;29.87;;
19341;SDS011;9807;48.258;12.690;2024-01-10T05:45:09;81.57;;;28.63;;
19341;SDS011;9807;48.258;12.690;2024-01-10T05:47:35;85.27;;;28.67;;
19341;SDS011;9807;48.258;12.690;2024-01-10T05:50:02;71.93;;;25.03;;
19341;SDS011;9807;48.258;12.690;2024-01-10T05:52:31;65.30;;;23.70;;
19341;SDS011;9807;48.258;12.690;2024-01-10T05:55:01;81.00;;;31.47;;
19341;SDS011;9807;48.258;12.690;2024-01-10T05:57:27;77.00;;;29.30;;
19341;SDS011;9807;48.258;12.690;2024-01-10T05:59:53;63.47;;;22.83;;
19341;SDS011;9807;48.258;12.690;2024-01-10T06:02:22;59.27;;;22.27;;
19341;SDS011;9807;48.258;12.690;2024-01-10T06:04:49;82.10;;;28.90;;
19341;SDS011;9807;48.258;12.690;2024-01-10T06:07:15;64.47;;;24.53;;
19341;SDS011;9807;48.258;12.690;2024-01-10T06:09:40;64.87;;;25.27;;
19341;SDS011;9807;48.258;12.690;2024-01-10T06:12:08;85.23;;;32.03;;
19341;SDS011;9807;48.258;12.690;2024-01-10T06:14:34;85.57;;;31.57;;
19341;SDS011;9807;48.258;12.690;2024-01-10T06:17:01;80.60;;;32.23;;
19341;SDS011;9807;48.258;12.690;2024-01-10T06:19:28;79.73;;;30.37;;
19341;SDS011;9807;48.258;12.690;2024-01-10T06:21:57;73.43;;;29.33;;
19341;SDS011;9807;48.258;12.690;2024-01-10T06:24:25;82.53;;;32.83;;
19341;SDS011;9807;48.258;12.690;2024-01-10T06:26:51;77.87;;;30.50;;
19341;SDS011;9807;48.258;12.690;2024-01-10T06:29:17;81.33;;;32.60;;
19341;SDS011;9807;48.258;12.690;2024-01-10T06:31:43;75.97;;;28.60;;
19341;SDS011;9807;48.258;12.690;2024-01-10T06:34:09;81.37;;;30.57;;
19341;SDS011;9807;48.258;12.690;2024-01-10T06:36:35;75.23;;;27.97;;
19341;SDS011;9807;48.258;12.690;2024-01-10T06:39:01;60.00;;;23.10;;
19341;SDS011;9807;48.258;12.690;2024-01-10T06:41:27;85.53;;;29.97;;
19341;SDS011;9807;48.258;12.690;2024-01-10T06:43:52;73.83;;;28.37;;
19341;SDS011;9807;48.258;12.690;2024-01-10T06:46:19;73.67;;;27.47;;
19341;SDS011;9807;48.258;12.690;2024-01-10T06:48:45;76.13;;;29.10;;
19341;SDS011;9807;48.258;12.690;2024-01-10T06:51:14;84.67;;;32.23;;
19341;SDS011;9807;48.258;12.690;2024-01-10T06:53:43;80.17;;;30.37;;
19341;SDS011;9807;48.258;12.690;2024-01-10T06:56:09;78.63;;;28.70;;
19341;SDS011;9807;48.258;12.690;2024-01-10T06:58:35;75.83;;;29.83;;
19341;SDS011;9807;48.258;12.690;2024-01-10T07:01:00;60.57;;;25.23;;
19341;SDS011;9807;48.258;12.690;2024-01-10T07:03:29;58.83;;;23.57;;
19341;SDS011;9807;48.258;12.690;2024-01-10T07:05:55;61.17;;;22.80;;
19341;SDS011;9807;48.258;12.690;2024-01-10T07:08:22;61.77;;;23.83;;
19341;SDS011;9807;48.258;12.690;2024-01-10T07:10:48;55.30;;;21.80;;
19341;SDS011;9807;48.258;12.690;2024-01-10T07:13:13;57.50;;;23.70;;
19341;SDS011;9807;48.258;12.690;2024-01-10T07:15:39;56.60;;;22.83;;
19341;SDS011;9807;48.258;12.690;2024-01-10T07:18:04;68.33;;;27.27;;
19341;SDS011;9807;48.258;12.690;2024-01-10T07:20:31;70.90;;;26.83;;
19341;SDS011;9807;48.258;12.690;2024-01-10T07:22:58;71.87;;;26.97;;
19341;SDS011;9807;48.258;12.690;2024-01-10T07:25:24;50.53;;;21.90;;
19341;SDS011;9807;48.258;12.690;2024-01-10T07:27:51;49.30;;;20.97;;
19341;SDS011;9807;48.258;12.690;2024-01-10T07:30:18;46.47;;;19.13;;
19341;SDS011;9807;48.258;12.690;2024-01-10T07:32:44;48.20;;;20.70;;
19341;SDS011;9807;48.258;12.690;2024-01-10T07:35:11;52.07;;;22.83;;
19341;SDS011;9807;48.258;12.690;2024-01-10T07:37:39;56.17;;;22.20;;
19341;SDS011;9807;48.258;12.690;2024-01-10T07:40:06;63.27;;;24.07;;
19341;SDS011;9807;48.258;12.690;2024-01-10T07:42:33;59.43;;;23.63;;
19341;SDS011;9807;48.258;12.690;2024-01-10T07:44:59;56.30;;;23.47;;
19341;SDS011;9807;48.258;12.690;2024-01-10T07:47:29;58.30;;;22.73;;
19341;SDS011;9807;48.258;12.690;2024-01-10T07:52:30;59.53;;;24.70;;
19341;SDS011;9807;48.258;12.690;2024-01-10T07:54:56;53.00;;;21.83;;
19341;SDS011;9807;48.258;12.690;2024-01-10T07:57:22;55.97;;;22.77;;
19341;SDS011;9807;48.258;12.690;2024-01-10T07:59:47;55.13;;;23.43;;
19341;SDS011;9807;48.258;12.690;2024-01-10T08:02:13;59.43;;;24.70;;
19341;SDS011;9807;48.258;12.690;2024-01-10T08:04:39;49.13;;;21.00;;
19341;SDS011;9807;48.258;12.690;2024-01-10T08:07:04;74.53;;;28.07;;
19341;SDS011;9807;48.258;12.690;2024-01-10T08:09:30;55.97;;;23.13;;
19341;SDS011;9807;48.258;12.690;2024-01-10T08:11:56;75.20;;;28.37;;
19341;SDS011;9807;48.258;12.690;2024-01-10T08:14:22;61.20;;;25.37;;
19341;SDS011;9807;48.258;12.690;2024-01-10T08:16:48;71.80;;;28.53;;
19341;SDS011;9807;48.258;12.690;2024-01-10T08:19:13;60.33;;;25.10;;
19341;SDS011;9807;48.258;12.690;2024-01-10T08:21:39;54.60;;;22.60;;
19341;SDS011;9807;48.258;12.690;2024-01-10T08:24:05;57.63;;;24.30;;
19341;SDS011;9807;48.258;12.690;2024-01-10T08:26:31;56.43;;;24.30;;
19341;SDS011;9807;48.258;12.690;2024-01-10T08:28:57;59.80;;;24.33;;
19341;SDS011;9807;48.258;12.690;2024-01-10T08:31:22;57.20;;;24.13;;
19341;SDS011;9807;48.258;12.690;2024-01-10T08:33:48;63.97;;;26.67;;
19341;SDS011;9807;48.258;12.690;2024-01-10T08:36:14;58.03;;;24.80;;
19341;SDS011;9807;48.258;12.690;2024-01-10T08:38:40;63.80;;;25.50;;
19341;SDS011;9807;48.258;12.690;2024-01-10T08:41:09;63.00;;;24.80;;
19341;SDS011;9807;48.258;12.690;2024-01-10T08:43:36;57.57;;;23.90;;
19341;SDS011;9807;48.258;12.690;2024-01-10T08:46:02;68.80;;;27.77;;
19341;SDS011;9807;48.258;12.690;2024-01-10T08:48:28;69.93;;;27.83;;
19341;SDS011;9807;48.258;12.690;2024-01-10T08:50:55;64.27;;;26.43;;
19341;SDS011;9807;48.258;12.690;2024-01-10T08:53:21;77.17;;;30.80;;
19341;SDS011;9807;48.258;12.690;2024-01-10T08:55:47;60.47;;;26.33;;
19341;SDS011;9807;48.258;12.690;2024-01-10T08:58:13;63.07;;;25.90;;
19341;SDS011;9807;48.258;12.690;2024-01-10T09:00:39;67.77;;;27.23;;
19341;SDS011;9807;48.258;12.690;2024-01-10T09:03:04;71.03;;;27.87;;
19341;SDS011;9807;48.258;12.690;2024-01-10T09:05:30;56.60;;;25.47;;
19341;SDS011;9807;48.258;12.690;2024-01-10T09:07:57;56.80;;;23.60;;
19341;SDS011;9807;48.258;12.690;2024-01-10T09:10:25;51.57;;;22.70;;
19341;SDS011;9807;48.258;12.690;2024-01-10T09:12:53;52.53;;;21.87;;
19341;SDS011;9807;48.258;12.690;2024-01-10T09:15:19;60.83;;;25.23;;
19341;SDS011;9807;48.258;12.690;2024-01-10T09:17:45;60.70;;;25.00;;
19341;SDS011;9807;48.258;12.690;2024-01-10T09:20:11;59.17;;;25.17;;
19341;SDS011;9807;48.258;12.690;2024-01-10T09:22:37;58.37;;;23.50;;
19341;SDS011;9807;48.258;12.690;2024-01-10T09:25:04;57.63;;;24.20;;
19341;SDS011;9807;48.258;12.690;2024-01-10T09:27:34;57.50;;;25.27;;
19341;SDS011;9807;48.258;12.690;2024-01-10T09:30:00;59.60;;;24.93;;
19341;SDS011;9807;48.258;12.690;2024-01-10T09:32:33;57.70;;;23.67;;
19341;SDS011;9807;48.258;12.690;2024-01-10T09:35:00;56.77;;;24.83;;
19341;SDS011;9807;48.258;12.690;2024-01-10T09:37:26;52.17;;;24.17;;
19341;SDS011;9807;48.258;12.690;2024-01-10T09:39:52;61.33;;;26.70;;
19341;SDS011;9807;48.258;12.690;2024-01-10T09:42:18;58.93;;;25.07;;
19341;SDS011;9807;48.258;12.690;2024-01-10T09:44:50;62.87;;;26.70;;
19341;SDS011;9807;48.258;12.690;2024-01-10T09:47:16;59.23;;;25.17;;
19341;SDS011;9807;48.258;12.690;2024-01-10T09:49:44;61.37;;;26.37;;
19341;SDS011;9807;48.258;12.690;2024-01-10T09:52:11;56.17;;;24.93;;
19341;SDS011;9807;48.258;12.690;2024-01-10T09:54:48;70.27;;;30.03;;
19341;SDS011;9807;48.258;12.690;2024-01-10T09:57:27;59.17;;;27.00;;
19341;SDS011;9807;48.258;12.690;2024-01-10T09:59:53;69.07;;;27.93;;
19341;SDS011;9807;48.258;12.690;2024-01-10T10:02:22;59.70;;;25.43;;
19341;SDS011;9807;48.258;12.690;2024-01-10T10:07:53;52.50;;;23.23;;
19341;SDS011;9807;48.258;12.690;2024-01-10T10:10:19;58.90;;;24.97;;
19341;SDS011;9807;48.258;12.690;2024-01-10T10:12:48;70.40;;;29.23;;
19341;SDS011;9807;48.258;12.690;2024-01-10T10:15:16;63.57;;;26.63;;
19341;SDS011;9807;48.258;12.690;2024-01-10T10:17:47;74.00;;;32.13;;
19341;SDS011;9807;48.258;12.690;2024-01-10T10:20:30;75.27;;;30.87;;
19341;SDS011;9807;48.258;12.690;2024-01-10T10:23:08;64.77;;;26.23;;
19341;SDS011;9807;48.258;12.690;2024-01-10T10:25:42;66.40;;;26.70;;
19341;SDS011;9807;48.258;12.690;2024-01-10T10:28:08;84.10;;;32.23;;
19341;SDS011;9807;48.258;12.690;2024-01-10T10:30:34;73.90;;;30.67;;
19341;SDS011;9807;48.258;12.690;2024-01-10T10:33:04;79.70;;;33.00;;
19341;SDS011;9807;48.258;12.690;2024-01-10T10:35:33;89.93;;;33.37;;
19341;SDS011;9807;48.258;12.690;2024-01-10T10:37:59;66.23;;;26.93;;
19341;SDS011;9807;48.258;12.690;2024-01-10T10:40:25;72.17;;;30.10;;
19341;SDS011;9807;48.258;12.690;2024-01-10T10:42:57;71.90;;;29.43;;
19341;SDS011;9807;48.258;12.690;2024-01-10T10:45:23;67.53;;;27.23;;
19341;SDS011;9807;48.258;12.690;2024-01-10T10:47:59;63.27;;;27.33;;
19341;SDS011;9807;48.258;12.690;2024-01-10T10:50:32;62.70;;;26.53;;
19341;SDS011;9807;48.258;12.690;2024-01-10T10:53:00;80.40;;;32.60;;
19341;SDS011;9807;48.258;12.690;2024-01-10T10:55:28;69.20;;;30.43;;
19341;SDS011;9807;48.258;12.690;2024-01-10T10:58:00;75.43;;;31.27;;
19341;SDS011;9807;48.258;12.690;2024-01-10T11:00:29;75.30;;;30.60;;
19341;SDS011;9807;48.258;12.690;2024-01-10T11:02:59;65.17;;;28.20;;
19341;SDS011;9807;48.258;12.690;2024-01-10T11:05:27;56.40;;;24.43;;
19341;SDS011;9807;48.258;12.690;2024-01-10T11:07:53;66.57;;;28.33;;
19341;SDS011;9807;48.258;12.690;2024-01-10T11:10:21;61.07;;;25.43;;
19341;SDS011;9807;48.258;12.690;2024-01-10T11:24:26;51.83;;;24.27;;
19341;SDS011;9807;48.258;12.690;2024-01-10T11:29:36;53.80;;;22.87;;
19341;SDS011;9807;48.258;12.690;2024-01-10T11:32:14;56.47;;;25.27;;
19341;SDS011;9807;48.258;12.690;2024-01-10T11:37:19;63.63;;;29.03;;
19341;SDS011;9807;48.258;12.690;2024-01-10T11:39:45;63.33;;;27.43;;
19341;SDS011;9807;48.258;12.690;2024-01-10T11:42:11;88.17;;;33.30;;
19341;SDS011;9807;48.258;12.690;2024-01-10T11:44:46;73.60;;;29.53;;
19341;SDS011;9807;48.258;12.690;2024-01-10T11:47:16;76.00;;;30.57;;
19341;SDS011;9807;48.258;12.690;2024-01-10T11:49:53;73.17;;;30.80;;
19341;SDS011;9807;48.258;12.690;2024-01-10T11:52:32;68.93;;;30.20;;
19341;SDS011;9807;48.258;12.690;2024-01-10T11:54:59;77.80;;;32.10;;
19341;SDS011;9807;48.258;12.690;2024-01-10T11:57:27;80.50;;;33.17;;
19341;SDS011;9807;48.258;12.690;2024-01-10T11:59:56;70.87;;;30.37;;
19341;SDS011;9807;48.258;12.690;2024-01-10T12:02:25;76.57;;;31.37;;
19341;SDS011;9807;48.258;12.690;2024-01-10T12:04:52;63.83;;;28.20;;
19341;SDS011;9807;48.258;12.690;2024-01-10T12:07:18;72.37;;;30.93;;
19341;SDS011;9807;48.258;12.690;2024-01-10T12:09:44;75.63;;;29.77;;
19341;SDS011;9807;48.258;12.690;2024-01-10T12:12:13;81.77;;;33.80;;
19341;SDS011;9807;48.258;12.690;2024-01-10T12:14:40;71.97;;;30.90;;
19341;SDS011;9807;48.258;12.690;2024-01-10T12:17:06;83.60;;;34.13;;
19341;SDS011;9807;48.258;12.690;2024-01-10T12:19:35;86.60;;;35.17;;
19341;SDS011;9807;48.258;12.690;2024-01-10T12:22:04;84.23;;;32.07;;
19341;SDS011;9807;48.258;12.690;2024-01-10T12:24:31;83.13;;;35.97;;
19341;SDS011;9807;48.258;12.690;2024-01-10T12:26:59;78.93;;;31.40;;
19341;SDS011;9807;48.258;12.690;2024-01-10T12:29:26;88.67;;;36.07;;
19341;SDS011;9807;48.258;12.690;2024-01-10T12:31:52;90.00;;;36.57;;
19341;SDS011;9807;48.258;12.690;2024-01-10T12:34:19;88.80;;;33.43;;
19341;SDS011;9807;48.258;12.690;2024-01-10T12:36:46;93.60;;;33.27;;
19341;SDS011;9807;48.258;12.690;2024-01-10T12:39:19;88.57;;;33.33;;
19341;SDS011;9807;48.258;12.690;2024-01-10T12:41:44;92.43;;;33.23;;
19341;SDS011;9807;48.258;12.690;2024-01-10T12:44:10;99.37;;;33.93;;
19341;SDS011;9807;48.258;12.690;2024-01-10T12:46:48;88.33;;;32.97;;
19341;SDS011;9807;48.258;12.690;2024-01-10T12:49:16;84.37;;;34.37;;
19341;SDS011;9807;48.258;12.690;2024-01-10T12:51:41;80.70;;;30.97;;
19341;SDS011;9807;48.258;12.690;2024-01-10T12:54:07;75.90;;;30.10;;
19341;SDS011;9807;48.258;12.690;2024-01-10T12:56:33;66.77;;;28.00;;
19341;SDS011;9807;48.258;12.690;2024-01-10T12:58:59;81.83;;;32.13;;
19341;SDS011;9807;48.258;12.690;2024-01-10T13:01:25;79.03;;;32.40;;
19341;SDS011;9807;48.258;12.690;2024-01-10T13:03:51;81.40;;;31.80;;
19341;SDS011;9807;48.258;12.690;2024-01-10T13:06:17;88.67;;;32.53;;
19341;SDS011;9807;48.258;12.690;2024-01-10T13:08:45;73.00;;;29.93;;
19341;SDS011;9807;48.258;12.690;2024-01-10T13:11:11;86.03;;;34.20;;
19341;SDS011;9807;48.258;12.690;2024-01-10T13:13:39;91.93;;;35.20;;
19341;SDS011;9807;48.258;12.690;2024-01-10T13:16:05;83.63;;;33.03;;
19341;SDS011;9807;48.258;12.690;2024-01-10T13:18:31;77.23;;;30.30;;
19341;SDS011;9807;48.258;12.690;2024-01-10T13:20:56;77.67;;;30.43;;
19341;SDS011;9807;48.258;12.690;2024-01-10T13:23:22;68.13;;;28.30;;
19341;SDS011;9807;48.258;12.690;2024-01-10T13:25:49;82.87;;;33.20;;
19341;SDS011;9807;48.258;12.690;2024-01-10T13:28:15;85.97;;;32.97;;
19341;SDS011;9807;48.258;12.690;2024-01-10T13:30:42;83.03;;;29.67;;
19341;SDS011;9807;48.258;12.690;2024-01-10T13:33:10;79.77;;;31.93;;
19341;SDS011;9807;48.258;12.690;2024-01-10T13:35:36;95.10;;;33.47;;
19341;SDS011;9807;48.258;12.690;2024-01-10T13:38:03;79.50;;;31.10;;
19341;SDS011;9807;48.258;12.690;2024-01-10T13:40:30;92.83;;;33.50;;
19341;SDS011;9807;48.258;12.690;2024-01-10T13:42:57;88.10;;;31.13;;
19341;SDS011;9807;48.258;12.690;2024-01-10T13:45:22;68.73;;;28.90;;
19341;SDS011;9807;48.258;12.690;2024-01-10T13:47:49;81.00;;;28.83;;
19341;SDS011;9807;48.258;12.690;2024-01-10T13:50:14;65.77;;;27.10;;
19341;SDS011;9807;48.258;12.690;2024-01-10T13:52:41;90.77;;;34.10;;
19341;SDS011;9807;48.258;12.690;2024-01-10T13:55:07;81.03;;;31.33;;
19341;SDS011;9807;48.258;12.690;2024-01-10T13:57:33;74.27;;;29.37;;
19341;SDS011;9807;48.258;12.690;2024-01-10T14:00:02;63.80;;;24.57;;
19341;SDS011;9807;48.258;12.690;2024-01-10T14:02:32;73.20;;;31.47;;
19341;SDS011;9807;48.258;12.690;2024-01-10T14:04:57;99.87;;;34.80;;
19341;SDS011;9807;48.258;12.690;2024-01-10T14:07:27;79.03;;;31.87;;
19341;SDS011;9807;48.258;12.690;2024-01-10T14:09:52;82.33;;;31.37;;
19341;SDS011;9807;48.258;12.690;2024-01-10T14:12:21;101.43;;;35.20;;
19341;SDS011;9807;48.258;12.690;2024-01-10T14:14:47;87.23;;;33.37;;
19341;SDS011;9807;48.258;12.690;2024-01-10T14:17:13;88.80;;;34.37;;
19341;SDS011;9807;48.258;12.690;2024-01-10T14:19:38;69.20;;;29.23;;
19341;SDS011;9807;48.258;12.690;2024-01-10T14:22:04;83.90;;;33.13;;
19341;SDS011;9807;48.258;12.690;2024-01-10T14:24:33;73.63;;;30.67;;
19341;SDS011;9807;48.258;12.690;2024-01-10T14:27:00;82.07;;;32.17;;
19341;SDS011;9807;48.258;12.690;2024-01-10T14:29:25;66.80;;;27.43;;
19341;SDS011;9807;48.258;12.690;2024-01-10T14:31:51;65.77;;;27.70;;
19341;SDS011;9807;48.258;12.690;2024-01-10T14:34:18;78.17;;;29.90;;
19341;SDS011;9807;48.258;12.690;2024-01-10T14:36:43;60.80;;;25.97;;
19341;SDS011;9807;48.258;12.690;2024-01-10T14:39:09;64.07;;;28.77;;
19341;SDS011;9807;48.258;12.690;2024-01-10T14:41:38;66.07;;;28.20;;